sensor_id;sensor_type;location;lat;lon;timestamp;temperature;humidity
23411;DHT22;11878;51.774;7.220;2024-03-08T00:01:07;3.10;99.90
23411;DHT22;11878;51.774;7.220;2024-03-08T00:04:08;3.10;99.90
23411;DHT22;11878;51.774;7.220;2024-03-08T00:07:10;3.10;99.90
23411;DHT22;11878;51.774;7.220;2024-03-08T00:10:13;3.10;99.90
23411;DHT22;11878;51.774;7.220;2024-03-08T00:13:16;3.00;99.90
23411;DHT22;11878;51.774;7.220;2024-03-08T00:16:18;3.00;99.90
23411;DHT22;11878;51.774;7.220;2024-03-08T00:19:24;3.00;99.90
23411;DHT22;11878;51.774;7.220;2024-03-08T00:22:26;3.00;99.90
23411;DHT22;11878;51.774;7.220;2024-03-08T00:25:28;2.90;99.90
23411;DHT22;11878;51.774;7.220;2024-03-08T00:28:30;2.90;99.90
23411;DHT22;11878;51.774;7.220;2024-03-08T00:31:32;2.90;99.90
23411;DHT22;11878;51.774;7.220;2024-03-08T00:34:37;2.80;99.90
23411;DHT22;11878;51.774;7.220;2024-03-08T00:37:38;2.80;99.90
23411;DHT22;11878;51.774;7.220;2024-03-08T00:40:40;2.80;99.90
23411;DHT22;11878;51.774;7.220;2024-03-08T00:43:42;2.80;99.90
23411;DHT22;11878;51.774;7.220;2024-03-08T00:46:44;0.10;99.90
23411;DHT22;11878;51.774;7.220;2024-03-08T00:49:46;2.80;99.90
23411;DHT22;11878;51.774;7.220;2024-03-08T00:52:48;2.70;99.90
23411;DHT22;11878;51.774;7.220;2024-03-08T00:55:50;2.70;99.90
23411;DHT22;11878;51.774;7.220;2024-03-08T00:58:52;2.70;99.90
23411;DHT22;11878;51.774;7.220;2024-03-08T01:01:53;2.60;99.90
23411;DHT22;11878;51.774;7.220;2024-03-08T01:04:56;2.70;99.90
23411;DHT22;11878;51.774;7.220;2024-03-08T01:07:58;2.70;99.90
23411;DHT22;11878;51.774;7.220;2024-03-08T01:11:00;2.50;99.90
23411;DHT22;11878;51.774;7.220;2024-03-08T01:14:02;2.50;99.90
23411;DHT22;11878;51.774;7.220;2024-03-08T01:17:03;2.50;99.90
23411;DHT22;11878;51.774;7.220;2024-03-08T01:20:06;2.50;99.90
23411;DHT22;11878;51.774;7.220;2024-03-08T01:23:08;2.50;99.90
23411;DHT22;11878;51.774;7.220;2024-03-08T01:26:10;2.50;99.90
23411;DHT22;11878;51.774;7.220;2024-03-08T01:29:13;2.50;99.90
23411;DHT22;11878;51.774;7.220;2024-03-08T01:32:15;2.50;99.90
23411;DHT22;11878;51.774;7.220;2024-03-08T01:35:16;2.50;99.90
23411;DHT22;11878;51.774;7.220;2024-03-08T01:38:20;2.40;99.90
23411;DHT22;11878;51.774;7.220;2024-03-08T01:41:25;2.30;99.90
23411;DHT22;11878;51.774;7.220;2024-03-08T01:44:29;2.30;99.90
23411;DHT22;11878;51.774;7.220;2024-03-08T01:47:32;2.20;99.90
23411;DHT22;11878;51.774;7.220;2024-03-08T01:50:34;2.30;99.90
23411;DHT22;11878;51.774;7.220;2024-03-08T01:53:38;2.30;99.90
23411;DHT22;11878;51.774;7.220;2024-03-08T01:56:40;2.20;99.90
23411;DHT22;11878;51.774;7.220;2024-03-08T01:59:42;2.20;99.90
23411;DHT22;11878;51.774;7.220;2024-03-08T02:02:46;2.10;99.90
23411;DHT22;11878;51.774;7.220;2024-03-08T02:05:49;2.20;99.90
23411;DHT22;11878;51.774;7.220;2024-03-08T02:08:51;2.20;99.90
23411;DHT22;11878;51.774;7.220;2024-03-08T02:11:53;2.20;99.90
23411;DHT22;11878;51.774;7.220;2024-03-08T02:14:56;2.10;99.90
23411;DHT22;11878;51.774;7.220;2024-03-08T02:17:58;2.00;99.90
23411;DHT22;11878;51.774;7.220;2024-03-08T02:21:02;2.10;99.90
23411;DHT22;11878;51.774;7.220;2024-03-08T02:24:05;2.10;99.90
23411;DHT22;11878;51.774;7.220;2024-03-08T02:27:07;2.10;99.90
23411;DHT22;11878;51.774;7.220;2024-03-08T02:30:10;2.10;99.90
23411;DHT22;11878;51.774;7.220;2024-03-08T02:33:15;2.10;99.90
23411;DHT22;11878;51.774;7.220;2024-03-08T02:36:20;2.00;99.90
23411;DHT22;11878;51.774;7.220;2024-03-08T02:39:23;2.00;99.90
23411;DHT22;11878;51.774;7.220;2024-03-08T02:42:25;2.10;99.90
23411;DHT22;11878;51.774;7.220;2024-03-08T02:45:26;2.00;99.90
23411;DHT22;11878;51.774;7.220;2024-03-08T02:48:28;2.00;99.90
23411;DHT22;11878;51.774;7.220;2024-03-08T02:51:30;2.00;99.90
23411;DHT22;11878;51.774;7.220;2024-03-08T02:54:32;2.00;99.90
23411;DHT22;11878;51.774;7.220;2024-03-08T02:57:34;1.90;99.90
23411;DHT22;11878;51.774;7.220;2024-03-08T03:00:37;2.00;99.90
23411;DHT22;11878;51.774;7.220;2024-03-08T03:03:41;1.90;99.90
23411;DHT22;11878;51.774;7.220;2024-03-08T03:06:42;1.90;99.90
23411;DHT22;11878;51.774;7.220;2024-03-08T03:09:44;1.90;99.90
23411;DHT22;11878;51.774;7.220;2024-03-08T03:12:47;1.90;99.90
23411;DHT22;11878;51.774;7.220;2024-03-08T03:15:50;1.90;99.90
23411;DHT22;11878;51.774;7.220;2024-03-08T03:18:53;1.90;99.90
23411;DHT22;11878;51.774;7.220;2024-03-08T03:21:55;1.90;99.90
23411;DHT22;11878;51.774;7.220;2024-03-08T03:24:56;1.90;99.90
23411;DHT22;11878;51.774;7.220;2024-03-08T03:27:59;1.80;99.90
23411;DHT22;11878;51.774;7.220;2024-03-08T03:31:02;1.80;99.90
23411;DHT22;11878;51.774;7.220;2024-03-08T03:34:05;1.80;99.90
23411;DHT22;11878;51.774;7.220;2024-03-08T03:37:10;1.70;99.90
23411;DHT22;11878;51.774;7.220;2024-03-08T03:40:15;1.70;99.90
23411;DHT22;11878;51.774;7.220;2024-03-08T03:43:17;1.80;99.90
23411;DHT22;11878;51.774;7.220;2024-03-08T03:46:18;1.80;99.90
23411;DHT22;11878;51.774;7.220;2024-03-08T03:49:20;1.80;99.90
23411;DHT22;11878;51.774;7.220;2024-03-08T03:52:22;1.70;99.90
23411;DHT22;11878;51.774;7.220;2024-03-08T03:55:24;1.80;99.90
23411;DHT22;11878;51.774;7.220;2024-03-08T03:58:26;1.80;99.90
23411;DHT22;11878;51.774;7.220;2024-03-08T04:01:29;1.70;99.90
23411;DHT22;11878;51.774;7.220;2024-03-08T04:04:31;1.80;99.90
23411;DHT22;11878;51.774;7.220;2024-03-08T04:07:33;1.70;99.90
23411;DHT22;11878;51.774;7.220;2024-03-08T04:10:35;1.70;99.90
23411;DHT22;11878;51.774;7.220;2024-03-08T04:13:38;1.60;99.90
23411;DHT22;11878;51.774;7.220;2024-03-08T04:16:39;1.70;99.90
23411;DHT22;11878;51.774;7.220;2024-03-08T04:19:42;1.70;99.90
23411;DHT22;11878;51.774;7.220;2024-03-08T04:22:44;1.70;99.90
23411;DHT22;11878;51.774;7.220;2024-03-08T04:25:49;1.60;99.90
23411;DHT22;11878;51.774;7.220;2024-03-08T04:28:51;1.60;99.90
23411;DHT22;11878;51.774;7.220;2024-03-08T04:31:53;1.70;99.90
23411;DHT22;11878;51.774;7.220;2024-03-08T04:34:58;1.60;99.90
23411;DHT22;11878;51.774;7.220;2024-03-08T04:38:00;1.60;99.90
23411;DHT22;11878;51.774;7.220;2024-03-08T04:41:01;1.60;99.90
23411;DHT22;11878;51.774;7.220;2024-03-08T04:44:03;1.60;99.90
23411;DHT22;11878;51.774;7.220;2024-03-08T04:47:05;1.60;99.90
23411;DHT22;11878;51.774;7.220;2024-03-08T04:50:07;1.60;99.90
23411;DHT22;11878;51.774;7.220;2024-03-08T04:53:10;1.50;99.90
23411;DHT22;11878;51.774;7.220;2024-03-08T04:56:12;1.50;99.90
23411;DHT22;11878;51.774;7.220;2024-03-08T04:59:14;1.50;99.90
23411;DHT22;11878;51.774;7.220;2024-03-08T05:02:16;1.50;99.90
23411;DHT22;11878;51.774;7.220;2024-03-08T05:05:19;1.40;99.90
23411;DHT22;11878;51.774;7.220;2024-03-08T05:08:21;1.40;99.90
23411;DHT22;11878;51.774;7.220;2024-03-08T05:11:22;1.50;99.90
23411;DHT22;11878;51.774;7.220;2024-03-08T05:14:25;1.50;99.90
23411;DHT22;11878;51.774;7.220;2024-03-08T05:17:27;1.50;99.90
23411;DHT22;11878;51.774;7.220;2024-03-08T05:20:29;1.40;99.90
23411;DHT22;11878;51.774;7.220;2024-03-08T05:23:32;1.40;99.90
23411;DHT22;11878;51.774;7.220;2024-03-08T05:26:35;1.40;99.90
23411;DHT22;11878;51.774;7.220;2024-03-08T05:29:37;1.40;99.90
23411;DHT22;11878;51.774;7.220;2024-03-08T05:32:39;1.40;99.90
23411;DHT22;11878;51.774;7.220;2024-03-08T05:35:41;1.40;99.90
23411;DHT22;11878;51.774;7.220;2024-03-08T05:38:43;1.40;99.90
23411;DHT22;11878;51.774;7.220;2024-03-08T05:41:45;1.40;99.90
23411;DHT22;11878;51.774;7.220;2024-03-08T05:44:47;1.40;99.90
23411;DHT22;11878;51.774;7.220;2024-03-08T05:47:49;1.30;99.90
23411;DHT22;11878;51.774;7.220;2024-03-08T05:50:53;1.30;99.90
23411;DHT22;11878;51.774;7.220;2024-03-08T05:53:55;1.30;99.90
23411;DHT22;11878;51.774;7.220;2024-03-08T05:56:58;1.30;99.90
23411;DHT22;11878;51.774;7.220;2024-03-08T06:00:00;1.30;99.90
23411;DHT22;11878;51.774;7.220;2024-03-08T06:03:02;1.20;99.90
23411;DHT22;11878;51.774;7.220;2024-03-08T06:06:04;1.30;99.90
23411;DHT22;11878;51.774;7.220;2024-03-08T06:09:06;1.30;99.90
23411;DHT22;11878;51.774;7.220;2024-03-08T06:12:14;1.30;99.90
23411;DHT22;11878;51.774;7.220;2024-03-08T06:15:20;1.40;99.90
23411;DHT22;11878;51.774;7.220;2024-03-08T06:18:22;1.40;99.90
23411;DHT22;11878;51.774;7.220;2024-03-08T06:21:25;1.40;99.90
23411;DHT22;11878;51.774;7.220;2024-03-08T06:24:30;1.40;99.90
23411;DHT22;11878;51.774;7.220;2024-03-08T06:27:32;1.30;99.90
23411;DHT22;11878;51.774;7.220;2024-03-08T06:30:35;1.40;99.90
23411;DHT22;11878;51.774;7.220;2024-03-08T06:33:37;1.40;99.90
23411;DHT22;11878;51.774;7.220;2024-03-08T06:36:39;1.40;99.90
23411;DHT22;11878;51.774;7.220;2024-03-08T06:39:41;1.50;99.90
23411;DHT22;11878;51.774;7.220;2024-03-08T06:42:43;1.50;99.90
23411;DHT22;11878;51.774;7.220;2024-03-08T06:45:45;1.50;99.90
23411;DHT22;11878;51.774;7.220;2024-03-08T06:48:50;1.50;99.90
23411;DHT22;11878;51.774;7.220;2024-03-08T06:51:52;1.70;99.90
23411;DHT22;11878;51.774;7.220;2024-03-08T06:54:54;1.80;99.90
23411;DHT22;11878;51.774;7.220;2024-03-08T06:57:56;1.80;99.90
23411;DHT22;11878;51.774;7.220;2024-03-08T07:00:58;1.90;99.90
23411;DHT22;11878;51.774;7.220;2024-03-08T07:04:02;1.90;99.90
23411;DHT22;11878;51.774;7.220;2024-03-08T07:07:07;2.00;99.90
23411;DHT22;11878;51.774;7.220;2024-03-08T07:10:11;2.10;99.90
23411;DHT22;11878;51.774;7.220;2024-03-08T07:13:16;2.20;99.90
23411;DHT22;11878;51.774;7.220;2024-03-08T07:16:18;2.20;99.90
23411;DHT22;11878;51.774;7.220;2024-03-08T07:19:20;2.30;99.90
23411;DHT22;11878;51.774;7.220;2024-03-08T07:22:23;2.30;99.90
23411;DHT22;11878;51.774;7.220;2024-03-08T07:25:25;2.40;99.90
23411;DHT22;11878;51.774;7.220;2024-03-08T07:28:31;2.40;99.90
23411;DHT22;11878;51.774;7.220;2024-03-08T07:31:33;2.50;99.90
23411;DHT22;11878;51.774;7.220;2024-03-08T07:35:03;2.60;99.90
23411;DHT22;11878;51.774;7.220;2024-03-08T07:38:07;2.70;99.90
23411;DHT22;11878;51.774;7.220;2024-03-08T07:41:09;2.80;99.90
23411;DHT22;11878;51.774;7.220;2024-03-08T07:44:14;2.80;99.90
23411;DHT22;11878;51.774;7.220;2024-03-08T07:47:16;2.90;99.90
23411;DHT22;11878;51.774;7.220;2024-03-08T07:50:23;3.00;99.90
23411;DHT22;11878;51.774;7.220;2024-03-08T07:53:25;3.00;99.90
23411;DHT22;11878;51.774;7.220;2024-03-08T07:56:26;6.00;99.90
23411;DHT22;11878;51.774;7.220;2024-03-08T07:59:29;3.20;99.90
23411;DHT22;11878;51.774;7.220;2024-03-08T08:02:32;3.30;99.90
23411;DHT22;11878;51.774;7.220;2024-03-08T08:05:38;3.30;99.90
23411;DHT22;11878;51.774;7.220;2024-03-08T08:08:41;3.50;99.90
23411;DHT22;11878;51.774;7.220;2024-03-08T08:11:43;3.60;99.90
23411;DHT22;11878;51.774;7.220;2024-03-08T08:14:46;3.70;99.90
23411;DHT22;11878;51.774;7.220;2024-03-08T08:17:48;3.80;99.90
23411;DHT22;11878;51.774;7.220;2024-03-08T08:20:50;1.00;99.90
23411;DHT22;11878;51.774;7.220;2024-03-08T08:23:52;3.90;99.90
23411;DHT22;11878;51.774;7.220;2024-03-08T08:26:54;3.90;99.90
23411;DHT22;11878;51.774;7.220;2024-03-08T08:29:56;4.00;99.90
23411;DHT22;11878;51.774;7.220;2024-03-08T08:32:57;4.00;99.90
23411;DHT22;11878;51.774;7.220;2024-03-08T08:36:02;4.20;99.90
23411;DHT22;11878;51.774;7.220;2024-03-08T08:39:05;4.40;99.90
23411;DHT22;11878;51.774;7.220;2024-03-08T08:42:14;4.40;99.90
23411;DHT22;11878;51.774;7.220;2024-03-08T08:45:15;4.60;99.90
23411;DHT22;11878;51.774;7.220;2024-03-08T08:48:23;4.80;99.90
23411;DHT22;11878;51.774;7.220;2024-03-08T08:51:26;4.90;99.90
23411;DHT22;11878;51.774;7.220;2024-03-08T08:54:29;5.00;99.90
23411;DHT22;11878;51.774;7.220;2024-03-08T08:57:31;5.20;99.90
23411;DHT22;11878;51.774;7.220;2024-03-08T09:00:34;5.40;99.90
23411;DHT22;11878;51.774;7.220;2024-03-08T09:03:37;5.50;99.90
23411;DHT22;11878;51.774;7.220;2024-03-08T09:06:42;5.60;99.90
23411;DHT22;11878;51.774;7.220;2024-03-08T09:09:44;5.70;99.90
23411;DHT22;11878;51.774;7.220;2024-03-08T09:12:47;5.90;99.90
23411;DHT22;11878;51.774;7.220;2024-03-08T09:15:49;5.90;99.90
23411;DHT22;11878;51.774;7.220;2024-03-08T09:18:53;6.00;99.90
23411;DHT22;11878;51.774;7.220;2024-03-08T09:21:55;6.30;99.90
23411;DHT22;11878;51.774;7.220;2024-03-08T09:24:56;6.50;99.90
23411;DHT22;11878;51.774;7.220;2024-03-08T09:27:58;6.60;99.90
23411;DHT22;11878;51.774;7.220;2024-03-08T09:31:01;6.80;99.90
23411;DHT22;11878;51.774;7.220;2024-03-08T09:34:03;7.00;99.90
23411;DHT22;11878;51.774;7.220;2024-03-08T09:37:05;7.20;99.90
23411;DHT22;11878;51.774;7.220;2024-03-08T09:40:07;7.20;99.90
23411;DHT22;11878;51.774;7.220;2024-03-08T09:43:12;7.40;99.90
23411;DHT22;11878;51.774;7.220;2024-03-08T09:46:15;7.60;99.90
23411;DHT22;11878;51.774;7.220;2024-03-08T09:49:17;7.70;99.90
23411;DHT22;11878;51.774;7.220;2024-03-08T09:52:19;7.90;99.90
23411;DHT22;11878;51.774;7.220;2024-03-08T09:55:21;8.00;99.90
23411;DHT22;11878;51.774;7.220;2024-03-08T09:58:25;8.10;99.90
23411;DHT22;11878;51.774;7.220;2024-03-08T10:01:29;8.20;99.90
23411;DHT22;11878;51.774;7.220;2024-03-08T10:04:31;8.40;99.90
23411;DHT22;11878;51.774;7.220;2024-03-08T10:07:34;8.00;99.90
23411;DHT22;11878;51.774;7.220;2024-03-08T10:10:39;9.00;99.90
23411;DHT22;11878;51.774;7.220;2024-03-08T10:13:41;9.50;99.90
23411;DHT22;11878;51.774;7.220;2024-03-08T10:16:45;9.70;99.90
23411;DHT22;11878;51.774;7.220;2024-03-08T10:19:51;10.00;99.10
23411;DHT22;11878;51.774;7.220;2024-03-08T10:22:55;10.10;97.30
23411;DHT22;11878;51.774;7.220;2024-03-08T10:26:12;11.20;99.60
23411;DHT22;11878;51.774;7.220;2024-03-08T10:29:18;10.60;99.30
23411;DHT22;11878;51.774;7.220;2024-03-08T10:32:20;10.60;98.10
23411;DHT22;11878;51.774;7.220;2024-03-08T10:35:22;10.90;97.90
23411;DHT22;11878;51.774;7.220;2024-03-08T10:38:26;10.90;98.40
23411;DHT22;11878;51.774;7.220;2024-03-08T10:41:30;10.40;94.30
23411;DHT22;11878;51.774;7.220;2024-03-08T10:44:43;10.70;97.40
23411;DHT22;11878;51.774;7.220;2024-03-08T10:51:19;11.10;95.60
23411;DHT22;11878;51.774;7.220;2024-03-08T10:54:22;11.10;95.20
23411;DHT22;11878;51.774;7.220;2024-03-08T10:57:27;10.70;95.80
23411;DHT22;11878;51.774;7.220;2024-03-08T11:00:29;11.10;93.80
23411;DHT22;11878;51.774;7.220;2024-03-08T11:06:43;10.80;92.10
23411;DHT22;11878;51.774;7.220;2024-03-08T11:09:48;10.60;92.60
23411;DHT22;11878;51.774;7.220;2024-03-08T11:12:51;10.00;94.00
23411;DHT22;11878;51.774;7.220;2024-03-08T11:15:54;10.40;94.00
23411;DHT22;11878;51.774;7.220;2024-03-08T11:19:06;10.50;93.90
23411;DHT22;11878;51.774;7.220;2024-03-08T11:22:29;10.70;93.50
23411;DHT22;11878;51.774;7.220;2024-03-08T11:28:44;10.40;94.00
23411;DHT22;11878;51.774;7.220;2024-03-08T11:31:46;10.80;94.30
23411;DHT22;11878;51.774;7.220;2024-03-08T11:34:49;10.50;93.60
23411;DHT22;11878;51.774;7.220;2024-03-08T11:37:52;10.60;94.10
23411;DHT22;11878;51.774;7.220;2024-03-08T11:40:56;10.10;93.00
23411;DHT22;11878;51.774;7.220;2024-03-08T11:44:03;9.60;93.40
23411;DHT22;11878;51.774;7.220;2024-03-08T11:47:10;10.20;93.60
23411;DHT22;11878;51.774;7.220;2024-03-08T11:50:13;10.10;92.90
23411;DHT22;11878;51.774;7.220;2024-03-08T11:53:15;10.30;92.30
23411;DHT22;11878;51.774;7.220;2024-03-08T11:56:18;10.60;92.70
23411;DHT22;11878;51.774;7.220;2024-03-08T11:59:22;10.60;92.70
23411;DHT22;11878;51.774;7.220;2024-03-08T12:02:25;10.60;90.70
23411;DHT22;11878;51.774;7.220;2024-03-08T12:05:27;10.70;92.30
23411;DHT22;11878;51.774;7.220;2024-03-08T12:08:32;11.00;90.60
23411;DHT22;11878;51.774;7.220;2024-03-08T12:11:34;11.20;90.50
23411;DHT22;11878;51.774;7.220;2024-03-08T12:14:38;11.50;90.50
23411;DHT22;11878;51.774;7.220;2024-03-08T12:17:40;11.60;91.90
23411;DHT22;11878;51.774;7.220;2024-03-08T12:20:42;11.10;86.00
23411;DHT22;11878;51.774;7.220;2024-03-08T12:24:07;11.20;90.20
23411;DHT22;11878;51.774;7.220;2024-03-08T12:27:19;11.40;89.40
23411;DHT22;11878;51.774;7.220;2024-03-08T12:30:26;11.40;91.60
23411;DHT22;11878;51.774;7.220;2024-03-08T12:33:30;12.20;90.80
23411;DHT22;11878;51.774;7.220;2024-03-08T12:36:32;12.30;86.70
23411;DHT22;11878;51.774;7.220;2024-03-08T12:39:34;12.70;85.70
23411;DHT22;11878;51.774;7.220;2024-03-08T12:42:36;12.60;81.60
23411;DHT22;11878;51.774;7.220;2024-03-08T12:45:38;12.00;81.30
23411;DHT22;11878;51.774;7.220;2024-03-08T12:48:41;11.40;83.70
23411;DHT22;11878;51.774;7.220;2024-03-08T12:51:47;11.70;84.70
23411;DHT22;11878;51.774;7.220;2024-03-08T12:54:49;12.50;82.40
23411;DHT22;11878;51.774;7.220;2024-03-08T12:57:51;12.60;82.30
23411;DHT22;11878;51.774;7.220;2024-03-08T13:00:55;12.90;81.20
23411;DHT22;11878;51.774;7.220;2024-03-08T13:03:57;12.50;82.50
23411;DHT22;11878;51.774;7.220;2024-03-08T13:07:00;11.70;81.90
23411;DHT22;11878;51.774;7.220;2024-03-08T13:10:03;12.40;83.10
23411;DHT22;11878;51.774;7.220;2024-03-08T13:13:06;12.30;83.30
23411;DHT22;11878;51.774;7.220;2024-03-08T13:16:08;11.60;82.90
23411;DHT22;11878;51.774;7.220;2024-03-08T13:19:10;11.50;83.50
23411;DHT22;11878;51.774;7.220;2024-03-08T13:22:13;11.80;81.60
23411;DHT22;11878;51.774;7.220;2024-03-08T13:25:18;12.60;78.60
23411;DHT22;11878;51.774;7.220;2024-03-08T13:28:21;12.70;79.80
23411;DHT22;11878;51.774;7.220;2024-03-08T13:31:29;12.80;79.80
23411;DHT22;11878;51.774;7.220;2024-03-08T13:34:31;13.60;74.50
23411;DHT22;11878;51.774;7.220;2024-03-08T13:37:36;12.70;73.40
23411;DHT22;11878;51.774;7.220;2024-03-08T13:40:39;12.50;74.90
23411;DHT22;11878;51.774;7.220;2024-03-08T13:43:42;12.30;76.30
23411;DHT22;11878;51.774;7.220;2024-03-08T13:46:46;12.40;78.20
23411;DHT22;11878;51.774;7.220;2024-03-08T13:49:49;13.20;73.30
23411;DHT22;11878;51.774;7.220;2024-03-08T13:52:52;14.30;70.10
23411;DHT22;11878;51.774;7.220;2024-03-08T13:55:57;14.90;66.20
23411;DHT22;11878;51.774;7.220;2024-03-08T13:59:01;15.00;64.30
23411;DHT22;11878;51.774;7.220;2024-03-08T14:02:04;15.30;60.10
23411;DHT22;11878;51.774;7.220;2024-03-08T14:05:07;15.70;62.30
23411;DHT22;11878;51.774;7.220;2024-03-08T14:08:10;16.10;59.60
23411;DHT22;11878;51.774;7.220;2024-03-08T14:11:13;16.70;56.40
23411;DHT22;11878;51.774;7.220;2024-03-08T14:14:16;17.20;55.40
23411;DHT22;11878;51.774;7.220;2024-03-08T14:17:19;17.40;54.10
23411;DHT22;11878;51.774;7.220;2024-03-08T14:20:22;17.00;53.80
23411;DHT22;11878;51.774;7.220;2024-03-08T14:23:27;17.20;54.70
23411;DHT22;11878;51.774;7.220;2024-03-08T14:26:29;18.00;50.10
23411;DHT22;11878;51.774;7.220;2024-03-08T14:29:31;16.30;54.60
23411;DHT22;11878;51.774;7.220;2024-03-08T14:32:34;16.50;54.60
23411;DHT22;11878;51.774;7.220;2024-03-08T14:35:40;16.70;53.30
23411;DHT22;11878;51.774;7.220;2024-03-08T14:38:43;16.90;51.20
23411;DHT22;11878;51.774;7.220;2024-03-08T14:41:44;17.60;50.50
23411;DHT22;11878;51.774;7.220;2024-03-08T14:44:50;17.40;51.70
23411;DHT22;11878;51.774;7.220;2024-03-08T14:47:54;15.20;53.30
23411;DHT22;11878;51.774;7.220;2024-03-08T14:50:57;13.80;58.80
23411;DHT22;11878;51.774;7.220;2024-03-08T14:53:58;13.00;61.00
23411;DHT22;11878;51.774;7.220;2024-03-08T14:57:00;12.90;63.70
23411;DHT22;11878;51.774;7.220;2024-03-08T15:00:02;13.20;62.50
23411;DHT22;11878;51.774;7.220;2024-03-08T15:03:07;14.10;61.80
23411;DHT22;11878;51.774;7.220;2024-03-08T15:06:13;15.80;56.00
23411;DHT22;11878;51.774;7.220;2024-03-08T15:09:15;16.10;54.80
23411;DHT22;11878;51.774;7.220;2024-03-08T15:12:19;17.00;52.00
23411;DHT22;11878;51.774;7.220;2024-03-08T15:15:22;17.70;50.60
23411;DHT22;11878;51.774;7.220;2024-03-08T15:18:26;17.80;49.00
23411;DHT22;11878;51.774;7.220;2024-03-08T15:21:32;16.90;51.20
23411;DHT22;11878;51.774;7.220;2024-03-08T15:24:35;17.70;50.20
23411;DHT22;11878;51.774;7.220;2024-03-08T15:27:39;15.80;49.90
23411;DHT22;11878;51.774;7.220;2024-03-08T15:30:42;16.10;51.50
23411;DHT22;11878;51.774;7.220;2024-03-08T15:33:48;17.00;51.60
23411;DHT22;11878;51.774;7.220;2024-03-08T15:36:53;17.80;48.50
23411;DHT22;11878;51.774;7.220;2024-03-08T15:39:55;16.80;49.90
23411;DHT22;11878;51.774;7.220;2024-03-08T15:42:57;16.40;49.10
23411;DHT22;11878;51.774;7.220;2024-03-08T15:46:00;16.60;50.90
23411;DHT22;11878;51.774;7.220;2024-03-08T15:49:03;15.40;52.00
23411;DHT22;11878;51.774;7.220;2024-03-08T15:52:06;13.90;56.70
23411;DHT22;11878;51.774;7.220;2024-03-08T15:55:08;13.30;59.00
23411;DHT22;11878;51.774;7.220;2024-03-08T15:58:10;12.70;62.30
23411;DHT22;11878;51.774;7.220;2024-03-08T16:01:15;13.00;61.80
23411;DHT22;11878;51.774;7.220;2024-03-08T16:04:21;13.00;62.10
23411;DHT22;11878;51.774;7.220;2024-03-08T16:07:23;12.60;62.90
23411;DHT22;11878;51.774;7.220;2024-03-08T16:10:25;12.50;66.50
23411;DHT22;11878;51.774;7.220;2024-03-08T16:13:27;12.10;66.40
23411;DHT22;11878;51.774;7.220;2024-03-08T16:16:29;12.80;67.20
23411;DHT22;11878;51.774;7.220;2024-03-08T16:19:32;12.80;64.60
23411;DHT22;11878;51.774;7.220;2024-03-08T16:22:34;12.00;66.20
23411;DHT22;11878;51.774;7.220;2024-03-08T16:25:37;11.60;70.70
23411;DHT22;11878;51.774;7.220;2024-03-08T16:28:40;11.50;71.30
23411;DHT22;11878;51.774;7.220;2024-03-08T16:31:44;11.30;72.10
23411;DHT22;11878;51.774;7.220;2024-03-08T16:34:47;11.00;75.40
23411;DHT22;11878;51.774;7.220;2024-03-08T16:37:49;11.00;74.80
23411;DHT22;11878;51.774;7.220;2024-03-08T16:40:52;11.10;74.50
23411;DHT22;11878;51.774;7.220;2024-03-08T16:43:56;11.00;73.90
23411;DHT22;11878;51.774;7.220;2024-03-08T16:47:01;10.80;75.60
23411;DHT22;11878;51.774;7.220;2024-03-08T16:50:06;10.30;81.10
23411;DHT22;11878;51.774;7.220;2024-03-08T16:53:09;11.90;81.20
23411;DHT22;11878;51.774;7.220;2024-03-08T16:56:13;10.10;83.30
23411;DHT22;11878;51.774;7.220;2024-03-08T16:59:15;10.00;82.80
23411;DHT22;11878;51.774;7.220;2024-03-08T17:02:18;9.80;85.70
23411;DHT22;11878;51.774;7.220;2024-03-08T17:05:20;9.80;86.90
23411;DHT22;11878;51.774;7.220;2024-03-08T17:08:22;9.70;86.20
23411;DHT22;11878;51.774;7.220;2024-03-08T17:11:24;9.80;86.60
23411;DHT22;11878;51.774;7.220;2024-03-08T17:14:26;9.70;89.40
23411;DHT22;11878;51.774;7.220;2024-03-08T17:17:30;9.60;88.20
23411;DHT22;11878;51.774;7.220;2024-03-08T17:20:33;9.40;90.90
23411;DHT22;11878;51.774;7.220;2024-03-08T17:23:39;9.50;89.20
23411;DHT22;11878;51.774;7.220;2024-03-08T17:26:42;9.30;90.10
23411;DHT22;11878;51.774;7.220;2024-03-08T17:29:45;9.30;90.60
23411;DHT22;11878;51.774;7.220;2024-03-08T17:32:48;9.10;92.30
23411;DHT22;11878;51.774;7.220;2024-03-08T17:35:50;9.10;92.30
23411;DHT22;11878;51.774;7.220;2024-03-08T17:38:54;9.00;91.70
23411;DHT22;11878;51.774;7.220;2024-03-08T17:41:56;8.90;92.10
23411;DHT22;11878;51.774;7.220;2024-03-08T17:44:58;8.80;92.20
23411;DHT22;11878;51.774;7.220;2024-03-08T17:48:03;8.80;92.20
23411;DHT22;11878;51.774;7.220;2024-03-08T17:51:15;8.60;93.30
23411;DHT22;11878;51.774;7.220;2024-03-08T17:54:17;8.50;92.70
23411;DHT22;11878;51.774;7.220;2024-03-08T17:57:19;8.50;94.50
23411;DHT22;11878;51.774;7.220;2024-03-08T18:00:22;8.40;94.70
23411;DHT22;11878;51.774;7.220;2024-03-08T18:03:30;8.30;95.80
23411;DHT22;11878;51.774;7.220;2024-03-08T18:06:34;8.40;94.50
23411;DHT22;11878;51.774;7.220;2024-03-08T18:09:42;8.20;95.80
23411;DHT22;11878;51.774;7.220;2024-03-08T18:12:48;8.20;95.60
23411;DHT22;11878;51.774;7.220;2024-03-08T18:15:52;8.20;96.00
23411;DHT22;11878;51.774;7.220;2024-03-08T18:18:54;8.10;96.20
23411;DHT22;11878;51.774;7.220;2024-03-08T18:21:56;8.10;95.80
23411;DHT22;11878;51.774;7.220;2024-03-08T18:24:59;8.00;96.60
23411;DHT22;11878;51.774;7.220;2024-03-08T18:28:02;8.00;96.70
23411;DHT22;11878;51.774;7.220;2024-03-08T18:31:07;7.90;97.30
23411;DHT22;11878;51.774;7.220;2024-03-08T18:34:09;8.00;96.60
23411;DHT22;11878;51.774;7.220;2024-03-08T18:37:11;7.90;96.80
23411;DHT22;11878;51.774;7.220;2024-03-08T18:40:14;7.90;97.90
23411;DHT22;11878;51.774;7.220;2024-03-08T18:43:17;7.80;97.80
23411;DHT22;11878;51.774;7.220;2024-03-08T18:46:19;7.90;97.50
23411;DHT22;11878;51.774;7.220;2024-03-08T18:49:21;7.70;97.80
23411;DHT22;11878;51.774;7.220;2024-03-08T18:52:23;7.70;98.00
23411;DHT22;11878;51.774;7.220;2024-03-08T18:55:26;7.60;98.30
23411;DHT22;11878;51.774;7.220;2024-03-08T18:58:34;7.70;98.70
23411;DHT22;11878;51.774;7.220;2024-03-08T19:01:46;6.90;98.70
23411;DHT22;11878;51.774;7.220;2024-03-08T19:04:49;7.60;99.40
23411;DHT22;11878;51.774;7.220;2024-03-08T19:07:53;7.60;99.90
23411;DHT22;11878;51.774;7.220;2024-03-08T19:10:55;7.50;99.00
23411;DHT22;11878;51.774;7.220;2024-03-08T19:13:59;7.30;99.90
23411;DHT22;11878;51.774;7.220;2024-03-08T19:17:01;7.40;99.90
23411;DHT22;11878;51.774;7.220;2024-03-08T19:20:05;7.40;99.90
23411;DHT22;11878;51.774;7.220;2024-03-08T19:23:15;7.30;99.90
23411;DHT22;11878;51.774;7.220;2024-03-08T19:26:17;7.30;99.90
23411;DHT22;11878;51.774;7.220;2024-03-08T19:29:23;7.20;99.90
23411;DHT22;11878;51.774;7.220;2024-03-08T19:32:26;7.10;99.90
23411;DHT22;11878;51.774;7.220;2024-03-08T19:35:29;7.10;99.90
23411;DHT22;11878;51.774;7.220;2024-03-08T19:38:31;7.10;99.90